createdAt,value
2019-01-25T15:27:20.086Z,99887.23
2019-01-25T15:29:48.729Z,99883.52
2019-01-25T15:32:17.441Z,99880.89
2019-01-25T15:34:46.043Z,99887.94
2019-01-25T15:37:14.672Z,99879.61
2019-01-25T15:39:43.275Z,99877.63
2019-01-25T15:42:11.889Z,99876.05
2019-01-25T15:44:41.659Z,99881.26
2019-01-25T15:47:10.281Z,99871.38
2019-01-25T15:49:38.931Z,99873.66
2019-01-25T15:53:24.647Z,99843.16
2019-01-25T15:55:54.081Z,99842.94
2019-01-25T15:58:23.225Z,99850.49
2019-01-25T16:00:51.846Z,99845.59
2019-01-25T16:03:20.585Z,99841.98
2019-01-25T16:05:48.619Z,99846.38
2019-01-25T16:08:17.344Z,99844.48
2019-01-25T16:10:45.418Z,99842.05
2019-01-25T16:13:14.294Z,99847.17
2019-01-25T16:15:43.194Z,99841.37
2019-01-25T16:18:11.843Z,99836.02
2019-01-25T16:20:40.472Z,99826.41
2019-01-25T16:23:09.178Z,99825.67
2019-01-25T16:25:37.028Z,99823.54
2019-01-25T16:28:05.945Z,99832.47
2019-01-25T16:30:38.727Z,99827.75
2019-01-25T16:33:07.880Z,99824.88
2019-01-25T16:35:36.504Z,99814.39
2019-01-25T16:38:10.489Z,99810.31
2019-01-25T16:40:41.665Z,99804.55
2019-01-25T16:43:11.547Z,99797.14
2019-01-25T16:45:42.167Z,99793.88
2019-01-25T16:48:11.121Z,99792.19
2019-01-25T16:50:40.080Z,99796.67
2019-01-25T16:53:10.985Z,99777.17
2019-01-25T16:55:39.717Z,99777.17
2019-01-25T16:58:08.160Z,99773.98
2019-01-25T17:00:42.062Z,99774.08
2019-01-25T17:03:11.066Z,99784.52
2019-01-25T17:05:39.801Z,99780.48
2019-01-25T17:08:08.073Z,99777.55
2019-01-25T17:10:37.312Z,99775.25
2019-01-25T17:13:06.517Z,99778.13
2019-01-25T17:15:35.664Z,99781.77
2019-01-25T17:18:04.477Z,99775.05
2019-01-25T17:20:36.205Z,99776.95
2019-01-25T17:23:06.583Z,99783.83
2019-01-25T17:25:35.446Z,99771.44
2019-01-25T17:28:07.200Z,99755.43
2019-01-25T17:30:37.760Z,99766.33
2019-01-25T17:33:06.676Z,99766.33
2019-01-25T17:35:37.016Z,99770.55
2019-01-25T17:38:06.706Z,99770.55
2019-01-25T17:40:46.143Z,99770.20
2019-01-25T17:43:09.446Z,99769.33
2019-01-25T17:45:38.184Z,99764.03
2019-01-25T17:48:07.370Z,99750.05
2019-01-25T17:50:36.038Z,99750.64
2019-01-25T17:53:04.196Z,99754.90
2019-01-25T17:55:32.886Z,99758.27
2019-01-25T17:58:08.087Z,99752.66
2019-01-25T18:00:35.827Z,99731.14
2019-01-25T18:03:04.454Z,99694.33
2019-01-25T18:05:34.747Z,99731.42
2019-01-25T18:08:03.475Z,99727.83
2019-01-25T18:10:32.086Z,99723.64
2019-01-25T18:12:59.935Z,99727.08
2019-01-25T18:15:28.468Z,99729.11
2019-01-25T18:17:57.099Z,99733.06
2019-01-25T18:20:24.984Z,99727.80
2019-01-25T18:22:53.807Z,99722.91
2019-01-25T18:25:32.813Z,99711.87
2019-01-25T18:28:02.331Z,99708.41
2019-01-25T18:30:35.808Z,99690.17
2019-01-25T18:33:04.406Z,99690.17
2019-01-25T18:35:33.169Z,99694.23
2019-01-25T18:38:04.120Z,99687.52
2019-01-25T18:40:32.698Z,99687.42
2019-01-25T18:43:01.304Z,99678.78
2019-01-25T18:45:30.176Z,99674.98
2019-01-25T18:47:59.188Z,99666.92
2019-01-25T18:50:27.835Z,99666.02
2019-01-25T18:52:55.740Z,99666.02
2019-01-25T18:55:24.301Z,99655.73
2019-01-25T18:57:52.130Z,99646.27
2019-01-25T19:00:20.998Z,99644.92
2019-01-25T19:02:49.616Z,99636.32
2019-01-25T19:05:18.280Z,99630.56
2019-01-25T19:07:46.344Z,99624.30
2019-01-25T19:10:21.594Z,99600.28
2019-01-25T19:12:50.538Z,99602.92
2019-01-25T19:15:21.605Z,99595.27
2019-01-25T19:17:50.223Z,99592.33
2019-01-25T19:20:19.158Z,99584.53
2019-01-25T19:22:47.792Z,99588.56
2019-01-25T19:25:15.625Z,99581.28
2019-01-25T19:27:44.159Z,99576.87
2019-01-25T19:30:20.503Z,99568.81
2019-01-25T19:32:49.304Z,99568.42
2019-01-25T19:35:17.150Z,99566.27
2019-01-25T19:37:45.672Z,99564.47
2019-01-25T19:40:21.732Z,99552.78
2019-01-25T19:43:11.175Z,99541.02
2019-01-25T19:45:45.223Z,99538.51
2019-01-25T19:48:23.907Z,99532.42
2019-01-25T19:51:10.921Z,99525.42
2019-01-25T19:53:47.808Z,99518.91
2019-01-25T19:56:22.071Z,99512.34
2019-01-25T19:58:59.241Z,99502.56
2019-01-25T20:01:52.314Z,99503.61
2019-01-25T20:08:24.034Z,99497.13
2019-01-25T20:11:36.669Z,99481.48
2019-01-25T20:14:34.968Z,99479.67
2019-01-25T20:17:17.353Z,99479.67
2019-01-25T20:20:18.201Z,99307.77
2019-01-25T20:23:08.117Z,99307.77
2019-01-25T20:26:11.903Z,99467.01
2019-01-25T20:29:06.494Z,99460.79
2019-01-25T20:31:48.720Z,99460.79
2019-01-25T20:34:34.845Z,99472.38
2019-01-25T20:37:39.218Z,99470.97
2019-01-25T20:40:48.480Z,99467.79
2019-01-25T20:43:34.846Z,99466.94
2019-01-25T20:46:17.836Z,99476.23
2019-01-25T20:48:58.031Z,99462.81
2019-01-25T20:51:35.959Z,99465.00
2019-01-25T20:54:38.090Z,99467.22
2019-01-25T20:57:29.872Z,99460.52
2019-01-25T21:00:35.926Z,99452.35
2019-01-25T21:03:29.786Z,99455.92
2019-01-25T21:06:13.326Z,99455.92
2019-01-25T21:08:52.897Z,99447.09
2019-01-25T21:11:39.537Z,99444.98
2019-01-25T21:14:39.108Z,99445.96
2019-01-25T21:17:25.230Z,99438.93
2019-01-25T21:26:49.765Z,99426.10
2019-01-25T21:29:30.063Z,99425.05
2019-01-25T21:32:16.609Z,99425.82
2019-01-25T21:35:07.687Z,99404.69
2019-01-25T21:37:54.743Z,99404.69
2019-01-25T21:40:34.499Z,99404.34
2019-01-25T21:43:21.768Z,99399.92
2019-01-25T21:46:26.744Z,99394.34
2019-01-25T21:53:07.486Z,99386.28
2019-01-25T21:55:11.350Z,99387.91
2019-01-25T21:58:19.301Z,99376.31
2019-01-25T22:00:56.699Z,99369.22
2019-01-25T22:03:29.288Z,99365.39
2019-01-25T22:05:57.898Z,99365.95
2019-01-25T22:08:26.916Z,99370.75
2019-01-25T22:10:55.875Z,99359.70
2019-01-25T22:13:24.479Z,99359.42
2019-01-25T22:15:53.115Z,99363.06
2019-01-25T22:18:21.040Z,99355.00
2019-01-25T22:20:49.561Z,99355.77
2019-01-25T22:23:18.158Z,99343.08
2019-01-25T22:25:46.754Z,99345.03
2019-01-25T22:28:15.385Z,99331.59
2019-01-25T22:30:44.004Z,99333.89
2019-01-25T22:33:12.700Z,99331.95
2019-01-25T22:35:40.543Z,99324.88
2019-01-25T22:38:09.152Z,99323.53
2019-01-25T22:40:37.772Z,99326.00
2019-01-25T22:43:06.386Z,99321.97
2019-01-25T22:45:34.999Z,99319.67
2019-01-25T22:48:03.231Z,99314.38
2019-01-25T22:50:34.107Z,99316.58
2019-01-25T22:53:02.794Z,99305.09
2019-01-25T22:55:30.649Z,99308.73
2019-01-25T22:57:59.251Z,99303.73
2019-01-25T23:00:48.940Z,99303.57
2019-01-25T23:03:20.339Z,99304.91
2019-01-25T23:06:16.598Z,99294.77
2019-01-25T23:08:45.232Z,99298.98
2019-01-25T23:11:13.943Z,99291.12
2019-01-25T23:13:41.802Z,99283.06
2019-01-25T23:16:10.362Z,99277.80
2019-01-25T23:18:38.980Z,99282.78
2019-01-25T23:21:07.986Z,99281.52
2019-01-25T23:23:36.660Z,99281.08
2019-01-25T23:26:05.149Z,99281.08
2019-01-25T23:28:33.970Z,99283.55
2019-01-25T23:31:02.583Z,99267.92
2019-01-25T23:33:31.193Z,99269.43
2019-01-25T23:35:59.864Z,99265.26
2019-01-25T23:38:28.425Z,99270.91
2019-01-25T23:40:57.057Z,99267.38
2019-01-25T23:43:25.664Z,99262.23
2019-01-25T23:45:54.284Z,99259.92
2019-01-25T23:48:23.173Z,99254.45
2019-01-25T23:50:52.064Z,99250.22
2019-01-25T23:53:20.669Z,99252.63
2019-01-25T23:55:49.252Z,99247.83
2019-01-25T23:58:17.840Z,99251.95
